Time;durP1;ratioP1;P1;durP2;ratioP2;P2;SDS_P1;SDS_P2;PMS_P1;PMS_P2;Temp;Humidity;BMP_temperature;BMP_pressure;BME280_temperature;BME280_humidity;BME280_pressure;Samples;Min_cycle;Max_cycle;Signal;HPM_P1;HPM_P2
2021/06/18 00:01:55;;;;;;;2.10;1.70;;;24.90;99.90;;;;;;5067826;28;20047;-59
2021/06/18 00:04:21;;;;;;;2.17;1.50;;;24.90;99.90;;;;;;5066312;28;20101;-59
2021/06/18 00:06:46;;;;;;;1.63;1.52;;;24.90;99.90;;;;;;5066178;28;20028;-59
2021/06/18 00:09:13;;;;;;;2.35;1.58;;;24.90;99.90;;;;;;5066525;28;20029;-59
2021/06/18 00:11:39;;;;;;;1.80;1.70;;;24.90;99.90;;;;;;5065922;28;20033;-59
2021/06/18 00:14:05;;;;;;;1.50;1.40;;;24.80;99.90;;;;;;5067124;28;20511;-59
2021/06/18 00:16:32;;;;;;;1.27;1.17;;;25.00;99.90;;;;;;5065832;28;20031;-59
2021/06/18 00:18:58;;;;;;;1.10;1.00;;;25.10;99.90;;;;;;5066228;28;20067;-59
2021/06/18 00:21:24;;;;;;;1.00;1.00;;;25.10;99.90;;;;;;5064602;28;20072;-59
2021/06/18 00:23:50;;;;;;;1.27;1.10;;;25.10;99.90;;;;;;5065753;28;20028;-59
2021/06/18 00:26:16;;;;;;;0.90;0.90;;;25.10;99.90;;;;;;5066138;28;20120;-59
2021/06/18 00:28:42;;;;;;;0.98;0.98;;;25.20;99.90;;;;;;5065299;28;20031;-59
2021/06/18 00:31:09;;;;;;;1.02;1.00;;;25.20;99.90;;;;;;5065871;28;20040;-59
2021/06/18 00:33:34;;;;;;;1.10;1.10;;;25.20;99.90;;;;;;5067916;28;20032;-59
2021/06/18 00:36:00;;;;;;;1.20;1.10;;;25.00;99.90;;;;;;5070357;28;20027;-59
2021/06/18 00:38:26;;;;;;;1.30;1.20;;;24.90;99.90;;;;;;5081497;28;20028;-59
2021/06/18 00:40:52;;;;;;;1.15;1.05;;;24.90;99.90;;;;;;5090628;28;20043;-59
2021/06/18 00:43:18;;;;;;;1.30;1.20;;;25.10;99.90;;;;;;5089876;28;20039;-59
2021/06/18 00:45:43;;;;;;;1.25;1.00;;;24.90;99.90;;;;;;5089623;28;20122;-59
2021/06/18 00:48:10;;;;;;;1.20;0.85;;;24.90;99.90;;;;;;5079406;28;20069;-59
2021/06/18 00:50:35;;;;;;;1.27;1.13;;;24.90;99.90;;;;;;5070461;28;20032;-59
2021/06/18 00:53:01;;;;;;;1.00;0.90;;;24.80;99.90;;;;;;5069634;28;20040;-59
2021/06/18 00:55:27;;;;;;;1.20;1.10;;;24.90;99.90;;;;;;5086369;28;20050;-59
2021/06/18 00:57:53;;;;;;;1.40;1.30;;;25.00;99.90;;;;;;5089005;28;20023;-59
2021/06/18 01:00:20;;;;;;;1.00;1.00;;;24.80;99.90;;;;;;5089996;28;20103;-59
2021/06/18 01:02:46;;;;;;;1.23;1.13;;;24.80;99.90;;;;;;5089712;28;20024;-59
2021/06/18 01:05:15;;;;;;;1.60;1.50;;;24.90;99.90;;;;;;5089888;28;20028;-59
2021/06/18 01:07:57;;;;;;;1.40;1.30;;;24.90;99.90;;;;;;5088016;28;20024;-59
2021/06/18 01:10:25;;;;;;;1.50;1.40;;;24.90;99.90;;;;;;5077089;28;20055;-59
2021/06/18 01:13:16;;;;;;;1.50;1.40;;;24.90;99.90;;;;;;5069760;28;20021;-59
2021/06/18 01:15:44;;;;;;;1.58;1.48;;;24.70;99.90;;;;;;5069234;28;20031;-59
2021/06/18 01:18:15;;;;;;;1.90;1.75;;;24.60;99.90;;;;;;5069174;28;20029;-59
2021/06/18 01:20:49;;;;;;;1.60;1.50;;;24.60;99.90;;;;;;5069000;28;20020;-59
2021/06/18 01:23:36;;;;;;;2.03;1.80;;;24.30;99.90;;;;;;5069336;28;20028;-59
2021/06/18 01:26:20;;;;;;;1.85;1.67;;;24.30;99.90;;;;;;5084234;28;20450;-59
2021/06/18 01:28:51;;;;;;;2.00;1.63;;;24.20;99.90;;;;;;5077704;28;20956;-59
2021/06/18 01:31:29;;;;;;;1.48;1.38;;;24.30;99.90;;;;;;5086826;28;20504;-59
2021/06/18 01:33:59;;;;;;;1.60;1.50;;;24.30;99.90;;;;;;5089299;28;20024;-59
2021/06/18 01:36:26;;;;;;;1.67;1.58;;;24.30;99.90;;;;;;5089005;28;20039;-59
2021/06/18 01:38:55;;;;;;;1.60;1.48;;;24.20;99.90;;;;;;5087234;28;20039;-59
2021/06/18 01:41:22;;;;;;;1.30;1.20;;;24.20;99.90;;;;;;5088520;28;20493;-59
2021/06/18 01:43:50;;;;;;;1.40;1.30;;;24.20;99.90;;;;;;5088311;28;20069;-59
2021/06/18 01:46:20;;;;;;;2.00;1.30;;;24.20;99.90;;;;;;5067905;28;20510;-59
2021/06/18 01:48:54;;;;;;;1.48;1.20;;;24.10;99.90;;;;;;5067812;28;20608;-59
2021/06/18 01:51:21;;;;;;;1.27;1.17;;;24.20;99.90;;;;;;5068993;28;20454;-59
2021/06/18 01:53:49;;;;;;;3.30;1.25;;;24.10;99.90;;;;;;5068165;28;20080;-58
2021/06/18 01:56:17;;;;;;;1.00;1.00;;;24.20;99.90;;;;;;5068978;28;20016;-59
2021/06/18 01:58:46;;;;;;;1.30;1.20;;;24.30;99.90;;;;;;5068542;28;20048;-59
2021/06/18 02:01:13;;;;;;;2.30;1.08;;;24.10;99.90;;;;;;5086542;28;20028;-59
2021/06/18 02:03:41;;;;;;;0.80;0.80;;;24.20;99.90;;;;;;5068258;28;20099;-59
2021/06/18 02:06:08;;;;;;;1.30;1.20;;;24.30;99.90;;;;;;5067747;28;20138;-59
2021/06/18 02:08:34;;;;;;;1.60;1.30;;;24.30;99.90;;;;;;5068602;28;20079;-59
2021/06/18 02:11:01;;;;;;;1.10;1.00;;;24.30;99.90;;;;;;5068629;28;20024;-59
2021/06/18 02:13:29;;;;;;;1.48;1.38;;;24.30;99.90;;;;;;5068584;28;20386;-59
2021/06/18 02:15:56;;;;;;;1.17;1.08;;;24.20;99.90;;;;;;5068866;28;20025;-59
2021/06/18 02:18:25;;;;;;;2.65;1.67;;;24.20;99.90;;;;;;5068469;28;20033;-59
2021/06/18 02:20:54;;;;;;;1.30;1.20;;;24.20;99.90;;;;;;5068195;28;20108;-59
2021/06/18 02:23:22;;;;;;;1.60;1.50;;;24.10;99.90;;;;;;5068647;28;20063;-59
2021/06/18 02:25:49;;;;;;;1.75;1.65;;;24.20;99.90;;;;;;5068145;28;20025;-59
2021/06/18 02:28:15;;;;;;;1.70;1.60;;;24.20;99.90;;;;;;5067921;28;20657;-59
2021/06/18 02:30:41;;;;;;;1.63;1.52;;;24.10;99.90;;;;;;5067521;28;20678;-59
2021/06/18 02:33:13;;;;;;;1.45;1.35;;;24.10;99.90;;;;;;5067713;28;20082;-59
2021/06/18 02:35:40;;;;;;;1.45;1.35;;;24.10;99.90;;;;;;5067858;28;20035;-59
2021/06/18 02:38:08;;;;;;;1.83;1.50;;;24.10;99.90;;;;;;5068193;28;20029;-59
2021/06/18 02:40:34;;;;;;;1.30;1.20;;;24.10;99.90;;;;;;5068103;28;20036;-59
2021/06/18 02:43:00;;;;;;;1.70;1.60;;;24.10;99.90;;;;;;5075872;28;20032;-59
2021/06/18 02:45:26;;;;;;;1.65;1.55;;;24.10;99.90;;;;;;5088197;28;20030;-59
2021/06/18 02:47:55;;;;;;;1.52;1.42;;;24.00;99.90;;;;;;5071650;28;20031;-59
2021/06/18 02:50:44;;;;;;;1.80;1.70;;;24.00;99.90;;;;;;5067697;28;20044;-59
2021/06/18 02:53:28;;;;;;;1.55;1.45;;;24.00;99.90;;;;;;5067646;28;20494;-59
2021/06/18 02:56:12;;;;;;;1.88;1.77;;;23.90;99.90;;;;;;5067044;28;20028;-59
2021/06/18 02:58:56;;;;;;;1.67;1.58;;;23.90;99.90;;;;;;5075102;28;20158;-59
2021/06/18 03:01:27;;;;;;;1.98;1.77;;;23.80;99.90;;;;;;5086775;28;20032;-59
2021/06/18 03:03:56;;;;;;;1.42;1.33;;;23.50;99.90;;;;;;5086237;28;20109;-59
2021/06/18 03:06:23;;;;;;;1.85;1.50;;;23.40;99.90;;;;;;5086738;28;20509;-59
2021/06/18 03:09:05;;;;;;;1.42;1.30;;;23.50;99.90;;;;;;5067614;28;20021;-59
2021/06/18 03:11:35;;;;;;;1.13;1.13;;;23.50;99.90;;;;;;5065514;28;20139;-59
2021/06/18 03:14:03;;;;;;;1.30;1.20;;;23.40;99.90;;;;;;5066011;28;20260;-59
2021/06/18 03:16:30;;;;;;;1.30;1.20;;;23.40;99.90;;;;;;5065661;28;20043;-59
2021/06/18 03:19:04;;;;;;;1.30;1.20;;;23.40;99.90;;;;;;5065355;28;20028;-59
2021/06/18 03:21:32;;;;;;;1.30;1.20;;;23.40;99.90;;;;;;5065481;28;20029;-59
2021/06/18 03:24:01;;;;;;;1.33;1.23;;;23.40;99.90;;;;;;5065940;28;20029;-59
2021/06/18 03:26:28;;;;;;;1.13;1.10;;;23.40;99.90;;;;;;5065258;28;20013;-59
2021/06/18 03:28:57;;;;;;;1.45;1.27;;;23.30;99.90;;;;;;5064933;28;20028;-59
2021/06/18 03:31:24;;;;;;;1.00;1.00;;;23.10;99.90;;;;;;5065548;28;20115;-59
2021/06/18 03:33:51;;;;;;;1.10;1.10;;;23.20;99.90;;;;;;5065237;28;20495;-59
2021/06/18 03:36:26;;;;;;;1.30;1.20;;;23.10;99.90;;;;;;5068153;28;20147;-59
2021/06/18 03:38:54;;;;;;;1.02;1.02;;;22.90;99.90;;;;;;5070273;28;20161;-59
2021/06/18 03:41:22;;;;;;;1.67;1.40;;;23.00;99.90;;;;;;5065398;28;20107;-59
2021/06/18 03:43:49;;;;;;;2.95;1.60;;;23.10;99.90;;;;;;5065263;28;20056;-59
2021/06/18 03:46:16;;;;;;;1.25;1.15;;;23.00;99.90;;;;;;5065417;28;20024;-59
2021/06/18 03:48:46;;;;;;;2.47;1.00;;;23.20;99.90;;;;;;5064886;28;20059;-59
2021/06/18 03:51:13;;;;;;;1.33;1.23;;;23.30;99.90;;;;;;5064806;28;20062;-59
2021/06/18 03:53:39;;;;;;;1.30;1.20;;;23.30;99.90;;;;;;5063565;28;20024;-58
2021/06/18 03:56:05;;;;;;;1.25;1.05;;;23.30;99.90;;;;;;5065989;28;20035;-58
2021/06/18 03:58:33;;;;;;;1.20;1.10;;;23.30;99.90;;;;;;5064815;28;20482;-59
2021/06/18 04:01:00;;;;;;;1.27;1.17;;;23.30;99.90;;;;;;5077836;28;20703;-59
2021/06/18 04:03:28;;;;;;;1.40;1.30;;;23.30;99.90;;;;;;5064767;28;20024;-59
2021/06/18 04:06:00;;;;;;;1.50;1.40;;;23.30;99.90;;;;;;5065278;28;20513;-59
2021/06/18 04:08:27;;;;;;;1.50;1.40;;;23.20;99.90;;;;;;5063767;28;20028;-59
2021/06/18 04:10:54;;;;;;;1.20;1.10;;;23.30;99.90;;;;;;5066183;28;20516;-59
2021/06/18 04:13:20;;;;;;;1.60;1.50;;;23.20;99.90;;;;;;5066440;28;20294;-59
2021/06/18 04:15:47;;;;;;;1.50;1.40;;;23.20;99.90;;;;;;5064763;28;20107;-59
2021/06/18 04:18:19;;;;;;;1.58;1.48;;;23.20;99.90;;;;;;5064719;28;20035;-59
2021/06/18 04:20:46;;;;;;;1.98;1.88;;;23.10;99.90;;;;;;5067234;28;20039;-59
2021/06/18 04:23:12;;;;;;;1.50;1.40;;;23.10;99.90;;;;;;5064576;28;20120;-59
2021/06/18 04:25:38;;;;;;;1.50;1.40;;;23.10;99.90;;;;;;5065571;28;20322;-59
2021/06/18 04:28:05;;;;;;;1.70;1.60;;;23.10;99.90;;;;;;5065482;28;20021;-59
2021/06/18 04:30:31;;;;;;;2.30;2.10;;;22.80;99.90;;;;;;5064430;28;20478;-59
2021/06/18 04:32:57;;;;;;;1.77;1.65;;;22.90;99.90;;;;;;5064861;28;20036;-59
2021/06/18 04:35:23;;;;;;;1.73;1.63;;;22.90;99.90;;;;;;5065281;28;20529;-59
2021/06/18 04:37:49;;;;;;;1.90;1.80;;;22.80;99.90;;;;;;5063935;28;20036;-59
2021/06/18 04:40:15;;;;;;;1.83;1.70;;;22.80;99.90;;;;;;5066926;28;20032;-59
2021/06/18 04:42:41;;;;;;;2.15;1.95;;;23.00;99.90;;;;;;5064705;28;20029;-59
2021/06/18 04:45:07;;;;;;;2.70;2.10;;;22.90;99.90;;;;;;5065299;28;20025;-59
2021/06/18 04:47:34;;;;;;;2.00;1.80;;;22.90;99.90;;;;;;5064122;28;20486;-58
2021/06/18 04:50:00;;;;;;;1.90;1.80;;;22.90;99.90;;;;;;5064448;28;20390;-59
2021/06/18 04:52:25;;;;;;;1.88;1.77;;;22.90;99.90;;;;;;5063869;28;20064;-58
2021/06/18 04:54:55;;;;;;;2.10;1.90;;;22.90;99.90;;;;;;5064615;28;20513;-58
2021/06/18 04:57:22;;;;;;;2.00;1.90;;;22.90;99.90;;;;;;5063858;28;20032;-58
2021/06/18 04:59:47;;;;;;;2.80;1.92;;;22.90;99.90;;;;;;5064348;28;20059;-58
2021/06/18 05:02:13;;;;;;;2.03;1.83;;;22.90;99.90;;;;;;5064366;28;20410;-59
2021/06/18 05:04:39;;;;;;;2.40;2.20;;;22.90;99.90;;;;;;5064532;28;20025;-59
2021/06/18 05:07:05;;;;;;;2.15;2.00;;;23.00;99.90;;;;;;5065124;28;20076;-58
2021/06/18 05:09:31;;;;;;;2.25;2.05;;;23.00;99.90;;;;;;5064066;28;20550;-58
2021/06/18 05:11:57;;;;;;;1.98;1.80;;;23.10;99.90;;;;;;5078468;28;20074;-58
2021/06/18 05:14:23;;;;;;;4.55;2.50;;;23.00;99.90;;;;;;5084711;28;20020;-59
2021/06/18 05:16:49;;;;;;;2.30;2.10;;;23.10;99.90;;;;;;5080073;28;20032;-59
2021/06/18 05:19:15;;;;;;;2.35;2.15;;;23.20;99.90;;;;;;5065027;28;20032;-59
2021/06/18 05:21:41;;;;;;;1.80;1.70;;;23.20;99.90;;;;;;5067867;28;20042;-59
2021/06/18 05:24:07;;;;;;;2.72;2.40;;;23.20;99.90;;;;;;5071650;28;20494;-59
2021/06/18 05:26:34;;;;;;;2.28;2.08;;;23.30;99.90;;;;;;5088097;28;20496;-59
2021/06/18 05:29:00;;;;;;;2.10;1.90;;;23.40;99.90;;;;;;5087854;28;20100;-59
2021/06/18 05:31:26;;;;;;;2.40;2.03;;;23.30;99.90;;;;;;5086548;28;20100;-59
2021/06/18 05:33:52;;;;;;;1.80;1.70;;;23.30;99.90;;;;;;5087303;28;20057;-59
2021/06/18 05:36:18;;;;;;;2.35;1.50;;;23.40;99.90;;;;;;5088000;28;20115;-59
2021/06/18 05:38:44;;;;;;;2.58;1.92;;;23.40;99.90;;;;;;5087672;28;20024;-59
2021/06/18 05:41:11;;;;;;;2.13;1.90;;;23.50;99.90;;;;;;5085954;28;20540;-59
2021/06/18 05:43:36;;;;;;;1.77;1.67;;;23.50;99.90;;;;;;5088578;28;20036;-59
2021/06/18 05:46:03;;;;;;;1.60;1.50;;;23.60;99.90;;;;;;5088147;28;20591;-59
2021/06/18 05:48:29;;;;;;;2.05;1.90;;;23.70;99.90;;;;;;5087132;28;20043;-58
2021/06/18 05:50:55;;;;;;;1.90;1.80;;;23.70;99.90;;;;;;5086538;28;20020;-58
2021/06/18 05:53:22;;;;;;;2.10;1.90;;;23.80;99.90;;;;;;5087315;28;20020;-59
2021/06/18 05:55:49;;;;;;;1.92;1.80;;;23.80;99.90;;;;;;5087676;28;20036;-58
2021/06/18 05:58:15;;;;;;;2.13;1.92;;;23.90;99.90;;;;;;5087491;28;20036;-59
2021/06/18 06:00:42;;;;;;;2.15;1.73;;;23.80;99.90;;;;;;5072473;28;20016;-59
2021/06/18 06:03:11;;;;;;;3.88;2.10;;;23.80;99.90;;;;;;5066978;28;20374;-59
2021/06/18 06:05:38;;;;;;;1.73;1.63;;;23.90;99.90;;;;;;5067408;28;20013;-61
2021/06/18 06:08:11;;;;;;;1.88;1.70;;;23.90;99.90;;;;;;5067697;28;20060;-61
2021/06/18 06:10:37;;;;;;;1.58;1.48;;;24.00;99.90;;;;;;5067546;28;20032;-61
2021/06/18 06:13:02;;;;;;;2.05;1.70;;;23.90;99.90;;;;;;5068273;28;20032;-61
2021/06/18 06:15:28;;;;;;;1.70;1.60;;;24.00;99.90;;;;;;5067940;28;20036;-61
2021/06/18 06:17:54;;;;;;;1.58;1.48;;;24.00;99.90;;;;;;5080613;28;20032;-61
2021/06/18 06:20:19;;;;;;;1.58;1.48;;;24.00;99.90;;;;;;5086150;28;20510;-61
2021/06/18 06:22:45;;;;;;;1.60;1.50;;;24.00;99.90;;;;;;5068229;28;20035;-61
2021/06/18 06:25:12;;;;;;;1.50;1.40;;;24.10;99.90;;;;;;5068421;28;20475;-61
2021/06/18 06:27:37;;;;;;;1.58;1.48;;;24.20;99.90;;;;;;5070361;28;20086;-61
2021/06/18 06:30:05;;;;;;;2.10;1.90;;;24.30;99.90;;;;;;5076592;28;20486;-61
2021/06/18 06:32:31;;;;;;;1.65;1.48;;;24.30;99.90;;;;;;5066805;28;20024;-61
2021/06/18 06:34:57;;;;;;;1.55;1.45;;;24.50;99.90;;;;;;5068101;28;20029;-61
2021/06/18 06:37:24;;;;;;;1.60;1.50;;;24.50;99.90;;;;;;5067991;28;20037;-61
2021/06/18 06:39:50;;;;;;;1.40;1.30;;;24.50;99.90;;;;;;5070311;28;20034;-61
2021/06/18 06:42:15;;;;;;;1.50;1.40;;;24.60;99.90;;;;;;5087914;28;20231;-61
2021/06/18 06:44:41;;;;;;;1.40;1.30;;;24.60;99.90;;;;;;5076280;28;20495;-61
2021/06/18 06:47:08;;;;;;;1.40;1.30;;;24.60;99.90;;;;;;5069249;28;20099;-61
2021/06/18 06:49:34;;;;;;;1.10;1.08;;;24.60;99.90;;;;;;5088644;28;20034;-61
2021/06/18 06:51:59;;;;;;;1.25;1.17;;;24.70;99.90;;;;;;5087930;28;20028;-61
2021/06/18 06:54:25;;;;;;;1.05;1.02;;;24.70;99.90;;;;;;5085464;28;20032;-61
2021/06/18 06:56:55;;;;;;;1.38;1.27;;;24.80;99.90;;;;;;5068040;28;20020;-61
2021/06/18 06:59:21;;;;;;;1.20;1.10;;;24.80;99.90;;;;;;5086889;28;20020;-61
2021/06/18 07:01:47;;;;;;;1.30;1.20;;;24.90;99.90;;;;;;5086191;28;20501;-61
2021/06/18 07:04:12;;;;;;;1.10;1.10;;;24.90;99.90;;;;;;5067641;28;20033;-61
2021/06/18 07:06:39;;;;;;;1.48;1.38;;;25.00;99.90;;;;;;5070140;28;20029;-61
2021/06/18 07:09:08;;;;;;;1.30;1.20;;;25.00;99.90;;;;;;5068243;28;20127;-61
2021/06/18 07:11:34;;;;;;;1.75;1.17;;;25.10;99.90;;;;;;5067953;28;20513;-61
2021/06/18 07:13:59;;;;;;;1.30;1.20;;;25.00;99.90;;;;;;5071447;28;20020;-61
2021/06/18 07:16:26;;;;;;;2.10;1.00;;;24.90;99.90;;;;;;5082413;28;20498;-61
2021/06/18 07:18:52;;;;;;;1.42;1.33;;;24.80;99.90;;;;;;5073593;28;20025;-61
2021/06/18 07:21:18;;;;;;;0.95;0.95;;;24.70;99.90;;;;;;5070896;28;20036;-61
2021/06/18 07:23:44;;;;;;;1.27;1.17;;;24.70;99.90;;;;;;5070479;28;20382;-61
2021/06/18 07:26:09;;;;;;;0.80;0.80;;;24.90;99.90;;;;;;5084094;28;20039;-61
2021/06/18 07:28:35;;;;;;;1.10;1.10;;;24.90;99.90;;;;;;5067709;28;20025;-61
2021/06/18 07:31:01;;;;;;;0.90;0.90;;;24.90;99.90;;;;;;5066565;28;20490;-61
2021/06/18 07:33:27;;;;;;;1.63;1.40;;;24.80;99.90;;;;;;5074830;28;20502;-61
2021/06/18 07:35:53;;;;;;;1.27;1.10;;;24.80;99.90;;;;;;5084914;28;20036;-61
2021/06/18 07:38:18;;;;;;;1.20;1.10;;;24.80;99.90;;;;;;5068829;28;20039;-61
2021/06/18 07:40:44;;;;;;;0.80;0.80;;;24.80;99.90;;;;;;5078969;28;20158;-61
2021/06/18 07:43:11;;;;;;;1.02;1.00;;;24.80;99.90;;;;;;5069450;28;20032;-60
2021/06/18 07:45:36;;;;;;;1.17;1.08;;;24.90;99.90;;;;;;5066798;28;20033;-61
2021/06/18 07:48:08;;;;;;;1.02;1.02;;;24.90;99.90;;;;;;5080188;28;20099;-61
2021/06/18 07:50:34;;;;;;;1.00;1.00;;;24.90;99.90;;;;;;5071056;28;20487;-61
2021/06/18 07:52:59;;;;;;;1.30;1.20;;;24.90;99.90;;;;;;5066571;28;20039;-62
2021/06/18 07:55:25;;;;;;;1.23;1.00;;;24.80;99.90;;;;;;5073977;28;20028;-61
2021/06/18 07:57:53;;;;;;;1.23;1.13;;;24.90;99.90;;;;;;5074250;28;20532;-61
2021/06/18 08:00:19;;;;;;;2.03;1.30;;;24.90;99.90;;;;;;5078295;28;20035;-62
2021/06/18 08:02:45;;;;;;;2.08;1.15;;;24.80;99.90;;;;;;5072058;28;20051;-61
2021/06/18 08:05:12;;;;;;;1.20;1.10;;;24.90;99.90;;;;;;5076715;28;20119;-61
2021/06/18 08:07:44;;;;;;;1.60;1.50;;;25.00;99.90;;;;;;5081486;28;20020;-62
2021/06/18 08:10:13;;;;;;;2.22;1.50;;;25.10;99.90;;;;;;5070766;28;20483;-61
2021/06/18 08:12:39;;;;;;;1.55;1.35;;;25.00;99.90;;;;;;5078006;28;20032;-61
2021/06/18 08:15:06;;;;;;;2.20;1.55;;;25.00;99.90;;;;;;5086444;28;20027;-62
2021/06/18 08:17:32;;;;;;;1.83;1.73;;;25.00;99.90;;;;;;5082754;28;20028;-60
2021/06/18 08:19:58;;;;;;;2.33;1.50;;;25.00;99.90;;;;;;5066925;28;20024;-60
2021/06/18 08:22:24;;;;;;;1.73;1.50;;;25.10;99.90;;;;;;5066085;28;20024;-60
2021/06/18 08:24:50;;;;;;;1.60;1.50;;;25.20;99.90;;;;;;5066777;28;20028;-60
2021/06/18 08:27:16;;;;;;;1.63;1.52;;;25.20;99.90;;;;;;5066497;28;20107;-61
2021/06/18 08:29:41;;;;;;;2.35;2.03;;;25.30;99.90;;;;;;5066020;28;20055;-61
2021/06/18 08:32:07;;;;;;;2.20;2.00;;;25.20;99.90;;;;;;5066519;28;20031;-61
2021/06/18 08:34:34;;;;;;;2.40;2.05;;;25.30;99.90;;;;;;5065832;28;20056;-60
2021/06/18 08:37:00;;;;;;;1.58;1.45;;;25.40;99.90;;;;;;5066303;28;20058;-61
2021/06/18 08:39:25;;;;;;;2.03;1.70;;;25.50;99.90;;;;;;5065536;28;20025;-61
2021/06/18 08:41:51;;;;;;;1.40;1.30;;;25.70;99.90;;;;;;5066368;28;20120;-60
2021/06/18 08:44:18;;;;;;;1.40;1.30;;;25.70;99.90;;;;;;5065420;28;20074;-60
2021/06/18 08:46:44;;;;;;;1.02;1.02;;;25.80;99.90;;;;;;5085561;28;20123;-60
2021/06/18 08:49:09;;;;;;;2.30;1.73;;;25.80;99.90;;;;;;5086311;28;20450;-60
2021/06/18 08:51:35;;;;;;;2.05;1.85;;;25.70;99.90;;;;;;5074833;28;20512;-61
2021/06/18 08:54:01;;;;;;;1.90;1.60;;;25.60;99.90;;;;;;5066622;28;20032;-60
2021/06/18 08:56:27;;;;;;;2.15;1.40;;;25.60;99.90;;;;;;5069851;28;20052;-60
2021/06/18 08:58:53;;;;;;;1.55;1.45;;;25.70;99.90;;;;;;5069697;28;20106;-60
2021/06/18 09:01:18;;;;;;;1.98;1.50;;;25.70;99.90;;;;;;5069830;28;20025;-60
2021/06/18 09:03:46;;;;;;;1.40;1.30;;;25.70;99.90;;;;;;5069890;28;20107;-60
2021/06/18 09:06:21;;;;;;;1.83;1.65;;;25.70;99.90;;;;;;5069685;28;20066;-59
2021/06/18 09:08:47;;;;;;;1.20;1.10;;;25.60;99.90;;;;;;5080087;28;20060;-60
2021/06/18 09:11:47;;;;;;;1.00;0.95;;;25.70;99.90;;;;;;5078795;28;20042;-60
2021/06/18 09:14:33;;;;;;;1.10;1.00;;;25.90;99.90;;;;;;5068570;28;20036;-59
2021/06/18 09:17:11;;;;;;;0.80;0.80;;;26.00;99.90;;;;;;5068440;28;20028;-60
2021/06/18 09:19:39;;;;;;;1.25;0.90;;;26.20;99.90;;;;;;5066612;28;20060;-60
2021/06/18 09:22:21;;;;;;;1.42;0.93;;;26.20;99.90;;;;;;5069974;28;20028;-60
2021/06/18 09:25:02;;;;;;;1.30;1.20;;;26.20;99.90;;;;;;5087642;28;20020;-60
2021/06/18 09:27:33;;;;;;;1.30;1.20;;;26.30;99.90;;;;;;5087817;28;20224;-59
2021/06/18 09:30:22;;;;;;;1.17;1.05;;;26.20;99.90;;;;;;5078029;28;20099;-60
2021/06/18 09:33:05;;;;;;;1.65;1.40;;;26.40;99.90;;;;;;5080236;28;20028;-60
2021/06/18 09:35:32;;;;;;;1.42;1.30;;;26.50;99.90;;;;;;5083645;28;20112;-60
2021/06/18 09:38:02;;;;;;;2.38;1.55;;;26.60;99.90;;;;;;5070807;28;20113;-60
2021/06/18 09:40:31;;;;;;;1.30;1.20;;;26.40;99.90;;;;;;5074066;28;20027;-60
2021/06/18 09:43:09;;;;;;;1.30;1.20;;;26.50;99.90;;;;;;5077352;28;20110;-59
2021/06/18 09:45:37;;;;;;;1.52;1.42;;;26.60;99.90;;;;;;5067817;28;20078;-60
2021/06/18 09:48:12;;;;;;;1.17;1.00;;;26.50;99.90;;;;;;5068108;28;20059;-60
2021/06/18 09:50:40;;;;;;;1.13;1.02;;;26.60;99.90;;;;;;5069380;28;20035;-59
2021/06/18 09:53:12;;;;;;;1.80;1.08;;;26.60;99.90;;;;;;5065786;28;20397;-59
2021/06/18 09:55:38;;;;;;;1.00;0.95;;;26.70;99.90;;;;;;5077641;28;20168;-59
2021/06/18 09:58:05;;;;;;;0.90;0.90;;;26.80;99.90;;;;;;5085796;28;20136;-60
2021/06/18 10:00:31;;;;;;;0.80;0.80;;;26.80;99.90;;;;;;5091937;28;20032;-59
2021/06/18 10:02:59;;;;;;;0.95;0.90;;;26.90;99.90;;;;;;5087514;28;20382;-59
2021/06/18 10:05:33;;;;;;;0.98;0.85;;;27.00;99.90;;;;;;5086899;28;20024;-59
2021/06/18 10:07:59;;;;;;;4.57;1.27;;;27.00;99.90;;;;;;5068124;28;20044;-60
2021/06/18 10:10:30;;;;;;;2.67;1.95;;;26.80;99.90;;;;;;5075511;28;20043;-60
2021/06/18 10:12:57;;;;;;;1.75;1.30;;;26.80;99.90;;;;;;5079412;28;20582;-60
2021/06/18 10:15:26;;;;;;;2.35;1.50;;;26.90;99.90;;;;;;5072821;28;20154;-60
2021/06/18 10:17:53;;;;;;;1.17;1.08;;;26.90;99.90;;;;;;5085548;28;20021;-59
2021/06/18 10:20:25;;;;;;;2.28;1.38;;;26.90;99.90;;;;;;5082780;28;20163;-59
2021/06/18 10:23:16;;;;;;;2.40;1.45;;;26.80;99.90;;;;;;5066238;28;20141;-60
2021/06/18 10:25:44;;;;;;;1.50;1.40;;;26.90;99.90;;;;;;5068348;28;20474;-60
2021/06/18 10:28:18;;;;;;;1.58;1.45;;;27.10;99.90;;;;;;5070833;28;20577;-60
2021/06/18 10:30:51;;;;;;;3.92;1.75;;;27.20;99.90;;;;;;5085888;28;20022;-60
2021/06/18 10:33:26;;;;;;;2.45;1.77;;;27.30;99.90;;;;;;5072170;28;20458;-59
2021/06/18 10:36:05;;;;;;;4.95;2.20;;;27.50;99.90;;;;;;5071197;28;20028;-60
2021/06/18 10:38:33;;;;;;;2.25;1.77;;;27.40;99.90;;;;;;5069436;28;20029;-60
2021/06/18 10:41:22;;;;;;;2.88;1.92;;;27.50;99.90;;;;;;5068941;28;20112;-59
2021/06/18 10:43:57;;;;;;;3.05;1.85;;;27.50;99.90;;;;;;5087211;28;20070;-60
2021/06/18 10:46:28;;;;;;;3.28;2.25;;;27.70;99.90;;;;;;5086082;28;20028;-59
2021/06/18 10:49:05;;;;;;;2.80;2.10;;;27.70;99.90;;;;;;5067900;28;20115;-59
2021/06/18 10:51:33;;;;;;;2.75;2.05;;;27.70;99.90;;;;;;5069122;28;20081;-61
2021/06/18 10:54:04;;;;;;;3.03;2.33;;;27.70;99.80;;;;;;5063904;28;20028;-60
2021/06/18 10:56:45;;;;;;;2.20;2.00;;;27.90;99.90;;;;;;5076604;28;20104;-62
2021/06/18 10:59:16;;;;;;;3.05;2.15;;;28.00;99.40;;;;;;5078974;28;20747;-61
2021/06/18 11:01:42;;;;;;;3.05;2.17;;;27.80;99.20;;;;;;5067075;28;20517;-60
2021/06/18 11:04:08;;;;;;;5.43;2.30;;;27.90;99.40;;;;;;5066235;28;20023;-60
2021/06/18 11:06:40;;;;;;;4.45;2.20;;;28.00;99.40;;;;;;5068208;28;20384;-60
2021/06/18 11:09:06;;;;;;;3.72;1.92;;;28.10;99.60;;;;;;5068300;28;20112;-60
2021/06/18 11:11:32;;;;;;;2.05;1.60;;;28.20;99.20;;;;;;5070854;28;20163;-60
2021/06/18 11:14:04;;;;;;;2.00;1.45;;;28.30;99.60;;;;;;5066970;28;20032;-59
2021/06/18 11:16:41;;;;;;;3.55;1.80;;;28.40;99.60;;;;;;5081701;28;20044;-59
2021/06/18 11:19:27;;;;;;;4.97;2.20;;;28.60;99.20;;;;;;5072681;28;20074;-60
2021/06/18 11:21:54;;;;;;;3.35;2.22;;;28.60;98.80;;;;;;5068555;28;20051;-60
2021/06/18 11:24:33;;;;;;;5.50;2.20;;;28.50;99.10;;;;;;5077022;28;20470;-60
2021/06/18 11:27:25;;;;;;;2.20;1.92;;;28.60;98.60;;;;;;5082821;28;20505;-60
2021/06/18 11:30:29;;;;;;;2.45;2.25;;;28.60;98.80;;;;;;5087000;28;20024;-60
2021/06/18 11:32:57;;;;;;;3.05;2.60;;;28.70;98.70;;;;;;5087351;28;20031;-61
2021/06/18 11:35:31;;;;;;;2.22;2.00;;;28.70;98.90;;;;;;5066582;28;20064;-60
2021/06/18 11:37:58;;;;;;;4.18;2.10;;;28.90;99.00;;;;;;5076890;28;20426;-60
2021/06/18 11:40:24;;;;;;;3.53;2.40;;;29.00;98.70;;;;;;5087623;28;20055;-61
2021/06/18 11:42:50;;;;;;;8.85;2.38;;;29.00;99.10;;;;;;5078579;28;20104;-60
2021/06/18 11:45:16;;;;;;;2.63;2.00;;;29.10;98.70;;;;;;5066010;28;20557;-59
2021/06/18 11:47:42;;;;;;;2.63;1.88;;;29.10;98.70;;;;;;5076184;28;20030;-59
2021/06/18 11:50:08;;;;;;;4.20;2.35;;;29.40;99.00;;;;;;5071516;28;20024;-60
2021/06/18 11:52:34;;;;;;;4.65;2.10;;;29.50;98.40;;;;;;5073120;28;20028;-59
2021/06/18 11:55:01;;;;;;;2.28;2.08;;;29.50;98.50;;;;;;5084763;28;20028;-59
2021/06/18 11:57:36;;;;;;;2.92;1.90;;;29.70;98.40;;;;;;5084532;28;20422;-60
2021/06/18 12:00:03;;;;;;;3.45;2.40;;;29.80;98.20;;;;;;5083248;28;20028;-59
2021/06/18 12:02:33;;;;;;;2.63;2.20;;;29.70;98.20;;;;;;5074983;28;20119;-60
2021/06/18 12:05:06;;;;;;;3.53;2.42;;;30.00;98.10;;;;;;5081848;28;20475;-60
2021/06/18 12:07:34;;;;;;;4.35;2.10;;;30.10;98.00;;;;;;5069527;28;20029;-60
2021/06/18 12:10:01;;;;;;;3.08;2.05;;;30.30;98.00;;;;;;5076040;28;20032;-59
2021/06/18 12:12:27;;;;;;;3.47;2.30;;;30.30;97.80;;;;;;5079070;28;20028;-60
2021/06/18 12:14:59;;;;;;;3.03;2.20;;;30.40;97.50;;;;;;5082373;28;20028;-59
2021/06/18 12:17:26;;;;;;;4.70;2.30;;;30.40;97.40;;;;;;5064840;28;20036;-59
2021/06/18 12:19:53;;;;;;;3.15;2.38;;;30.50;97.40;;;;;;5077045;28;20024;-60
2021/06/18 12:22:25;;;;;;;6.13;2.40;;;30.60;98.00;;;;;;5085107;28;20042;-61
2021/06/18 12:24:54;;;;;;;3.08;2.10;;;30.80;97.30;;;;;;5083363;28;20020;-60
2021/06/18 12:27:30;;;;;;;2.50;2.20;;;30.80;97.60;;;;;;5066358;28;20608;-61
2021/06/18 12:30:07;;;;;;;3.00;2.17;;;31.00;97.70;;;;;;5074826;28;20032;-61
2021/06/18 12:32:36;;;;;;;2.90;2.45;;;31.10;97.20;;;;;;5077049;28;20028;-61
2021/06/18 12:35:05;;;;;;;3.47;2.78;;;30.80;96.50;;;;;;5073669;28;20024;-61
2021/06/18 12:37:33;;;;;;;3.35;2.30;;;30.90;97.10;;;;;;5082617;28;20112;-59
2021/06/18 12:40:04;;;;;;;3.58;2.25;;;31.10;96.90;;;;;;5067806;28;20024;-61
2021/06/18 12:42:50;;;;;;;3.50;2.25;;;31.00;96.60;;;;;;5086980;28;20115;-60
2021/06/18 12:45:24;;;;;;;3.85;2.75;;;30.90;96.70;;;;;;5065725;28;20067;-59
2021/06/18 12:47:52;;;;;;;4.17;2.20;;;31.20;96.70;;;;;;5074215;28;20028;-59
2021/06/18 12:50:23;;;;;;;2.85;2.15;;;31.40;96.90;;;;;;5065418;28;20288;-59
2021/06/18 12:52:59;;;;;;;4.10;1.88;;;31.50;96.80;;;;;;5065416;28;20399;-60
2021/06/18 12:55:50;;;;;;;2.90;2.20;;;31.50;96.70;;;;;;5081961;28;20023;-60
2021/06/18 12:58:21;;;;;;;2.72;2.10;;;31.50;96.80;;;;;;5087963;28;20397;-59